Flinterbothnia — PBLG — position and weather

sailwx.info

Track history (hours):
 
Tides and Currents Weather Stations Pressure Air Temp Water Temp Dewpoint Dewpoint Depression Visibility Wind Speed Wind Dir Waves Ship Positions

Flinterbothnia

Last reported at 2015-May-03 23:33 UTC. Time now 2015-May-05 01:09 UTC.
Position N 60°02' E 027°17'.

Length 82 m; draft 3.6 m.

Type: Cargo ship. MMSI: 244741000.

Date/timePositionNaut miles runAvg speedWind from/ knotsBaromVisibWave heightAir tempDewpointWater temp
2015-May-03 23:33N 60°02' E 027°17'7 7.1
2015-May-03 22:32N 59°59' E 027°05'7 6.8
2015-May-03 21:33N 59°59' E 026°52'7 7.1
2015-May-03 20:34N 59°59' E 026°38'7 7.1
2015-May-03 19:33N 59°57' E 026°24'51 1.3
2015-May-02 03:33N 59°34' E 024°55'8 8.5
2015-May-02 02:33N 59°38' E 024°40'371 8.1
2015-Apr-30 04:33N 55°43' E 015°43'17 8.7
2015-Apr-30 02:34N 55°35' E 015°16'9 8.7
2015-Apr-30 01:34N 55°30' E 015°03'9 8.8
2015-Apr-30 00:34N 55°26' E 014°49'9 8.7
2015-Apr-29 23:33N 55°21' E 014°36'9 8.7
2015-Apr-29 22:29N 55°14' E 014°25'8 8.2
2015-Apr-29 21:33N 55°11' E 014°13'9 8.2
2015-Apr-29 20:30N 55°11' E 013°58'8 8.2
2015-Apr-29 19:33N 55°12' E 013°44'8 8.5
2015-Apr-29 18:33N 55°13' E 013°29'9 8.7
2015-Apr-29 17:33N 55°13' E 013°14'9 9.0
2015-Apr-29 16:34N 55°14' E 012°58'9 8.6
2015-Apr-29 15:34N 55°17' E 012°44'7 6.9
2015-Apr-29 14:34N 55°23' E 012°40'8 8.1
2015-Apr-29 13:34N 55°31' E 012°42'7 7.5
2015-Apr-29 12:33N 55°39' E 012°41'8 8.0
2015-Apr-29 11:34N 55°47' E 012°42'8 8.3
2015-Apr-29 10:33N 55°55' E 012°39'8 8.1
2015-Apr-29 09:33N 56°03' E 012°38'8 8.4
2015-Apr-29 08:33N 56°09' E 012°28'9 8.6
2015-Apr-29 07:34N 56°16' E 012°18'9 9.0
2015-Apr-29 06:34N 56°23' E 012°08'10 9.1
2015-Apr-29 05:30N 56°31' E 011°58'8 8.7
2015-Apr-29 04:33N 56°39' E 011°54'9 8.9
2015-Apr-29 03:33N 56°47' E 011°50'9 9.1
2015-Apr-29 02:33N 56°56' E 011°44'9 9.4
2015-Apr-29 01:33N 57°05' E 011°37'9 9.2
2015-Apr-29 00:34N 57°13' E 011°31'9 8.5
2015-Apr-28 23:34N 57°21' E 011°24'8 8.1
2015-Apr-28 22:34N 57°28' E 011°18'8 8.0
2015-Apr-28 21:33N 57°35' E 011°09'9 8.6
2015-Apr-28 20:33N 57°40' E 010°57'10 8.5
2015-Apr-28 19:23N 57°46' E 010°42'8 9.8
2015-Apr-28 18:31N 57°46' E 010°26'420 8.8
2015-Apr-26 18:33N 58°42' W 002°45'1010.0
2015-Apr-26 17:34N 58°43' W 003°04'1211.4
2015-Apr-26 16:33N 58°43' W 003°27'1110.7
2015-Apr-26 15:34N 58°42' W 003°47'1010.2
2015-Apr-26 14:34N 58°42' W 004°06'44 8.4
2015-Apr-26 09:20N 58°24' W 005°23'7 8.4
2015-Apr-26 08:33N 58°18' W 005°30'9 8.7
2015-Apr-26 07:34N 58°12' W 005°40'9 8.7
2015-Apr-26 06:34N 58°04' W 005°50'137 7.4
2015-Apr-25 12:09N 55°48' W 006°05'6 7.7
2015-Apr-25 11:25N 55°43' W 005°59'8 9.1
2015-Apr-25 10:33N 55°36' W 005°57'9 9.5
2015-Apr-25 09:34N 55°26' W 005°54'1010.2
2015-Apr-25 08:34N 55°16' W 005°51'2211.1
2015-Apr-25 06:33N 54°56' W 005°36'1010.4
2015-Apr-25 05:33N 54°46' W 005°29'1010.4
2015-Apr-25 04:33N 54°36' W 005°24'10 9.9
2015-Apr-25 03:33N 54°26' W 005°21'9 9.4
2015-Apr-25 02:33N 54°18' W 005°27'1010.0
2015-Apr-25 01:33N 54°10' W 005°39'1010.5
2015-Apr-25 00:33N 54°04' W 005°52'8 8.1
2015-Apr-24 23:33N 54°02' W 006°06'1 1.1
2015-Apr-24 22:20N 54°02' W 006°08'0 0.0
2015-Apr-24 21:17N 54°02' W 006°08'0 0.0
2015-Apr-24 20:32N 54°02' W 006°08'0 0.0
2015-Apr-24 19:32N 54°02' W 006°08'0 0.0
2015-Apr-24 18:32N 54°02' W 006°08'0 0.0
2015-Apr-24 17:32N 54°02' W 006°08'0 0.0
2015-Apr-24 16:20N 54°02' W 006°08'0 0.0
2015-Apr-24 15:14N 54°02' W 006°08'0 0.0
2015-Apr-24 14:32N 54°02' W 006°08'0 0.0
2015-Apr-24 13:32N 54°02' W 006°08'0 0.0
2015-Apr-24 12:26N 54°02' W 006°08'0 0.0
2015-Apr-24 11:20N 54°02' W 006°08'0 0.0
2015-Apr-24 10:08N 54°02' W 006°08'0 0.0
2015-Apr-24 09:32N 54°02' W 006°08'0 0.0
2015-Apr-24 08:32N 54°02' W 006°08'0 0.0
2015-Apr-24 07:20N 54°02' W 006°08'0 0.0
2015-Apr-24 05:23N 54°02' W 006°08'0 0.0
2015-Apr-24 04:23N 54°02' W 006°08'0 0.0
2015-Apr-24 03:26N 54°02' W 006°08'0 0.0
2015-Apr-24 02:23N 54°02' W 006°08'0 0.0
2015-Apr-24 01:23N 54°02' W 006°08'0 0.0
2015-Apr-24 00:20N 54°02' W 006°08'  
Track history (hours):
 
Tides and Currents Weather Stations Pressure Air Temp Water Temp Dewpoint Dewpoint Depression Visibility Wind Speed Wind Dir Waves Ship Positions

Flinterbothnia

Last reported at 2015-May-03 23:33 UTC. Time now 2015-May-05 01:09 UTC.
Position N 60°02' E 027°17'.

Length 82 m; draft 3.6 m.

Type: Cargo ship. MMSI: 244741000.

Date/timePositionNaut miles runAvg speedWind from/ knotsBaromVisibWave heightAir tempDewpointWater temp
2015-May-03 23:33N 60°02' E 027°17'7 7.1
2015-May-03 22:32N 59°59' E 027°05'7 6.8
2015-May-03 21:33N 59°59' E 026°52'7 7.1
2015-May-03 20:34N 59°59' E 026°38'7 7.1
2015-May-03 19:33N 59°57' E 026°24'51 1.3
2015-May-02 03:33N 59°34' E 024°55'8 8.5
2015-May-02 02:33N 59°38' E 024°40'371 8.1
2015-Apr-30 04:33N 55°43' E 015°43'17 8.7
2015-Apr-30 02:34N 55°35' E 015°16'9 8.7
2015-Apr-30 01:34N 55°30' E 015°03'9 8.8
2015-Apr-30 00:34N 55°26' E 014°49'9 8.7
2015-Apr-29 23:33N 55°21' E 014°36'9 8.7
2015-Apr-29 22:29N 55°14' E 014°25'8 8.2
2015-Apr-29 21:33N 55°11' E 014°13'9 8.2
2015-Apr-29 20:30N 55°11' E 013°58'8 8.2
2015-Apr-29 19:33N 55°12' E 013°44'8 8.5
2015-Apr-29 18:33N 55°13' E 013°29'9 8.7
2015-Apr-29 17:33N 55°13' E 013°14'9 9.0
2015-Apr-29 16:34N 55°14' E 012°58'9 8.6
2015-Apr-29 15:34N 55°17' E 012°44'7 6.9
2015-Apr-29 14:34N 55°23' E 012°40'8 8.1
2015-Apr-29 13:34N 55°31' E 012°42'7 7.5
2015-Apr-29 12:33N 55°39' E 012°41'8 8.0
2015-Apr-29 11:34N 55°47' E 012°42'8 8.3
2015-Apr-29 10:33N 55°55' E 012°39'8 8.1
2015-Apr-29 09:33N 56°03' E 012°38'8 8.4
2015-Apr-29 08:33N 56°09' E 012°28'9 8.6
2015-Apr-29 07:34N 56°16' E 012°18'9 9.0
2015-Apr-29 06:34N 56°23' E 012°08'10 9.1
2015-Apr-29 05:30N 56°31' E 011°58'8 8.7
2015-Apr-29 04:33N 56°39' E 011°54'9 8.9
2015-Apr-29 03:33N 56°47' E 011°50'9 9.1
2015-Apr-29 02:33N 56°56' E 011°44'9 9.4
2015-Apr-29 01:33N 57°05' E 011°37'9 9.2
2015-Apr-29 00:34N 57°13' E 011°31'9 8.5
2015-Apr-28 23:34N 57°21' E 011°24'8 8.1
2015-Apr-28 22:34N 57°28' E 011°18'8 8.0
2015-Apr-28 21:33N 57°35' E 011°09'9 8.6
2015-Apr-28 20:33N 57°40' E 010°57'10 8.5
2015-Apr-28 19:23N 57°46' E 010°42'8 9.8
2015-Apr-28 18:31N 57°46' E 010°26'420 8.8
2015-Apr-26 18:33N 58°42' W 002°45'1010.0
2015-Apr-26 17:34N 58°43' W 003°04'1211.4
2015-Apr-26 16:33N 58°43' W 003°27'1110.7
2015-Apr-26 15:34N 58°42' W 003°47'1010.2
2015-Apr-26 14:34N 58°42' W 004°06'44 8.4
2015-Apr-26 09:20N 58°24' W 005°23'7 8.4
2015-Apr-26 08:33N 58°18' W 005°30'9 8.7
2015-Apr-26 07:34N 58°12' W 005°40'9 8.7
2015-Apr-26 06:34N 58°04' W 005°50'137 7.4
2015-Apr-25 12:09N 55°48' W 006°05'6 7.7
2015-Apr-25 11:25N 55°43' W 005°59'8 9.1
2015-Apr-25 10:33N 55°36' W 005°57'9 9.5
2015-Apr-25 09:34N 55°26' W 005°54'1010.2
2015-Apr-25 08:34N 55°16' W 005°51'2211.1
2015-Apr-25 06:33N 54°56' W 005°36'1010.4
2015-Apr-25 05:33N 54°46' W 005°29'1010.4
2015-Apr-25 04:33N 54°36' W 005°24'10 9.9
2015-Apr-25 03:33N 54°26' W 005°21'9 9.4
2015-Apr-25 02:33N 54°18' W 005°27'1010.0
2015-Apr-25 01:33N 54°10' W 005°39'1010.5
2015-Apr-25 00:33N 54°04' W 005°52'8 8.1
2015-Apr-24 23:33N 54°02' W 006°06'1 1.1
2015-Apr-24 22:20N 54°02' W 006°08'0 0.0
2015-Apr-24 21:17N 54°02' W 006°08'0 0.0
2015-Apr-24 20:32N 54°02' W 006°08'0 0.0
2015-Apr-24 19:32N 54°02' W 006°08'0 0.0
2015-Apr-24 18:32N 54°02' W 006°08'0 0.0
2015-Apr-24 17:32N 54°02' W 006°08'0 0.0
2015-Apr-24 16:20N 54°02' W 006°08'0 0.0
2015-Apr-24 15:14N 54°02' W 006°08'0 0.0
2015-Apr-24 14:32N 54°02' W 006°08'0 0.0
2015-Apr-24 13:32N 54°02' W 006°08'0 0.0
2015-Apr-24 12:26N 54°02' W 006°08'0 0.0
2015-Apr-24 11:20N 54°02' W 006°08'0 0.0
2015-Apr-24 10:08N 54°02' W 006°08'0 0.0
2015-Apr-24 09:32N 54°02' W 006°08'0 0.0
2015-Apr-24 08:32N 54°02' W 006°08'0 0.0
2015-Apr-24 07:20N 54°02' W 006°08'0 0.0
2015-Apr-24 05:23N 54°02' W 006°08'0 0.0
2015-Apr-24 04:23N 54°02' W 006°08'0 0.0
2015-Apr-24 03:26N 54°02' W 006°08'0 0.0
2015-Apr-24 02:23N 54°02' W 006°08'0 0.0
2015-Apr-24 01:23N 54°02' W 006°08'0 0.0
2015-Apr-24 00:20N 54°02' W 006°08'  

Dump ship's entire track history